Time;durP1;ratioP1;P1;durP2;ratioP2;P2;SDS_P1;SDS_P2;PMS_P1;PMS_P2;Temp;Humidity;BMP_temperature;BMP_pressure;BME280_temperature;BME280_humidity;BME280_pressure;Samples;Min_cycle;Max_cycle;Signal;HPM_P1;HPM_P2
2023/06/13 00:02:33;;;;;;;3.57;3.27;;;23.70;64.20;;;;;;4827376;29;20818;-84
2023/06/13 00:05:49;;;;;;;3.90;3.60;;;23.70;65.20;;;;;;4824342;29;20480;-81
2023/06/13 00:09:13;;;;;;;3.97;3.67;;;23.70;66.00;;;;;;4744636;30;20439;-82
2023/06/13 00:12:20;;;;;;;3.97;3.50;;;23.40;65.90;;;;;;4783703;29;20456;-84
2023/06/13 00:15:01;;;;;;;5.60;4.00;;;23.30;65.10;;;;;;4765109;30;21007;-86
2023/06/13 00:17:56;;;;;;;4.10;3.70;;;23.30;65.00;;;;;;4773374;30;20961;-83
2023/06/13 00:21:29;;;;;;;4.00;3.70;;;23.40;65.80;;;;;;4775503;29;21108;-85
2023/06/13 00:24:36;;;;;;;3.33;3.03;;;24.20;67.00;;;;;;4798416;29;20455;-83
2023/06/13 00:27:22;;;;;;;5.07;3.47;;;23.30;65.30;;;;;;4804484;29;20463;-82
2023/06/13 00:30:07;;;;;;;4.23;3.83;;;23.30;66.00;;;;;;4804312;29;20499;-84
2023/06/13 00:32:51;;;;;;;;;;;;;;;;;;;;;
2023/06/13 00:35:34;;;;;;;10.30;4.10;;;23.20;65.90;;;;;;4803164;29;20472;-85
2023/06/13 00:38:22;;;;;;;5.33;3.93;;;23.00;66.60;;;;;;4779459;29;20480;-83
2023/06/13 00:41:03;;;;;;;4.20;3.80;;;23.00;65.60;;;;;;4807897;29;20499;-85
2023/06/13 00:44:23;;;;;;;4.43;3.90;;;23.00;65.80;;;;;;4732844;30;20463;-84
2023/06/13 00:47:26;;;;;;;4.23;3.80;;;23.20;67.70;;;;;;4872478;29;20472;-84
2023/06/13 00:50:28;;;;;;;6.10;3.70;;;23.20;66.40;;;;;;4880316;29;20606;-84
2023/06/13 00:53:16;;;;;;;4.23;3.83;;;23.60;67.60;;;;;;4880709;29;20456;-85
2023/06/13 00:55:59;;;;;;;4.50;4.10;;;23.10;66.70;;;;;;4895547;29;20477;-84
2023/06/13 00:58:54;;;;;;;5.03;3.83;;;22.80;66.20;;;;;;4877164;29;20455;-83
2023/06/13 01:01:59;;;;;;;4.40;3.80;;;23.20;67.20;;;;;;4882320;29;20571;-81
2023/06/13 01:04:47;;;;;;;4.50;4.03;;;23.40;67.20;;;;;;4881338;29;21280;-82
2023/06/13 01:07:41;;;;;;;4.17;3.80;;;23.20;67.80;;;;;;4880205;29;20492;-85
2023/06/13 01:10:23;;;;;;;5.07;4.33;;;23.10;68.40;;;;;;4893096;29;20918;-83
2023/06/13 01:13:54;;;;;;;6.60;4.57;;;22.90;68.10;;;;;;4881365;29;20464;-84
2023/06/13 01:16:56;;;;;;;7.17;3.93;;;23.10;67.90;;;;;;4861514;29;20459;-84
2023/06/13 01:20:04;;;;;;;4.97;3.50;;;22.80;67.90;;;;;;4876713;29;20488;-82
2023/06/13 01:23:47;;;;;;;;;;;;;;;;;;;;;
2023/06/13 01:27:02;;;;;;;4.27;3.97;;;22.90;69.10;;;;;;4881662;29;20995;-83
2023/06/13 01:30:10;;;;;;;4.07;3.77;;;23.20;69.50;;;;;;4881399;29;20547;-83
2023/06/13 01:33:30;;;;;;;4.13;3.77;;;23.00;69.80;;;;;;4883058;29;20468;-83
2023/06/13 01:36:37;;;;;;;4.50;4.10;;;22.80;69.60;;;;;;4890599;29;20544;-84
2023/06/13 01:39:38;;;;;;;4.23;3.87;;;22.80;69.80;;;;;;4884861;29;20819;-84
2023/06/13 01:42:31;;;;;;;3.93;3.50;;;22.70;70.00;;;;;;4896546;29;20621;-84
2023/06/13 01:45:16;;;;;;;4.90;3.77;;;22.60;69.30;;;;;;4896778;29;20476;-84
2023/06/13 01:48:36;;;;;;;3.73;3.43;;;22.50;69.00;;;;;;4882439;29;20500;-85
2023/06/13 01:52:00;;;;;;;4.20;3.90;;;22.70;69.90;;;;;;4902623;29;20509;-83
2023/06/13 01:54:52;;;;;;;4.57;4.17;;;22.80;70.50;;;;;;4874201;29;20447;-84
2023/06/13 01:57:38;;;;;;;3.93;3.63;;;22.40;69.80;;;;;;4887998;29;20496;-83
2023/06/13 02:05:28;;;;;;;4.37;3.97;;;22.80;70.30;;;;;;4892517;29;20475;-84
2023/06/13 02:08:10;;;;;;;4.20;3.80;;;22.50;69.80;;;;;;4895099;29;20463;-82
2023/06/13 02:11:14;;;;;;;4.47;3.77;;;22.50;69.90;;;;;;4901754;29;20480;-83
2023/06/13 02:14:06;;;;;;;4.47;4.07;;;22.50;70.00;;;;;;4887038;29;20512;-83
2023/06/13 02:16:52;;;;;;;4.30;3.90;;;23.10;71.20;;;;;;4887225;29;20444;-83
2023/06/13 02:19:43;;;;;;;4.20;3.70;;;22.50;70.40;;;;;;4898082;29;20516;-83
2023/06/13 02:22:28;;;;;;;4.87;4.37;;;22.50;70.30;;;;;;4892493;29;20486;-82
2023/06/13 02:25:22;;;;;;;4.67;4.20;;;22.30;70.60;;;;;;4877353;29;20448;-83
2023/06/13 02:34:19;;;;;;;4.50;4.10;;;22.30;73.30;;;;;;4900125;29;20525;-83
2023/06/13 02:37:08;;;;;;;4.63;4.20;;;22.30;72.80;;;;;;4876965;29;20451;-83
2023/06/13 02:39:48;;;;;;;3.90;3.60;;;22.20;72.80;;;;;;4870413;29;20495;-83
2023/06/13 02:42:49;;;;;;;5.00;4.03;;;22.00;73.30;;;;;;4876634;29;20484;-84
2023/06/13 02:45:49;;;;;;;4.73;4.33;;;21.90;74.80;;;;;;4869976;29;20455;-84
2023/06/13 02:48:36;;;;;;;4.03;3.73;;;22.20;74.80;;;;;;4866515;29;20476;-84
2023/06/13 02:51:33;;;;;;;4.83;4.40;;;21.30;73.40;;;;;;4852630;29;20590;-83
2023/06/13 02:54:13;;;;;;;4.83;4.07;;;21.80;73.10;;;;;;4867881;29;20502;-83
2023/06/13 02:57:00;;;;;;;4.47;3.90;;;21.60;74.30;;;;;;4858832;29;20468;-82
2023/06/13 02:59:47;;;;;;;4.67;4.00;;;21.60;74.40;;;;;;4861584;29;20567;-84
2023/06/13 03:02:31;;;;;;;3.80;3.50;;;21.60;74.40;;;;;;4867729;29;20491;-84
2023/06/13 03:05:36;;;;;;;4.77;4.20;;;21.50;74.00;;;;;;4874769;29;20479;-83
2023/06/13 03:08:13;;;;;;;4.70;3.90;;;22.10;76.00;;;;;;4884574;29;20459;-82
2023/06/13 03:10:48;;;;;;;4.60;3.93;;;21.40;74.80;;;;;;4866594;29;20670;-83
2023/06/13 03:13:21;;;;;;;4.53;4.13;;;21.30;74.50;;;;;;4883433;29;20475;-84
2023/06/13 03:16:08;;;;;;;4.70;4.20;;;21.30;74.60;;;;;;4865717;29;20478;-81
2023/06/13 03:18:46;;;;;;;4.30;3.90;;;21.30;75.10;;;;;;4863942;29;20483;-82
2023/06/13 03:21:30;;;;;;;4.40;4.00;;;21.20;74.90;;;;;;4880178;29;20485;-84
2023/06/13 03:24:13;;;;;;;3.93;3.60;;;21.20;75.80;;;;;;4876457;29;20846;-85
2023/06/13 03:26:47;;;;;;;4.17;3.87;;;21.70;76.30;;;;;;4863194;29;20489;-85
2023/06/13 03:29:17;;;;;;;4.77;4.20;;;21.40;76.10;;;;;;4883472;29;20479;-84
2023/06/13 03:31:59;;;;;;;3.50;3.20;;;21.20;76.20;;;;;;4867853;29;21545;-86
2023/06/13 03:34:45;;;;;;;4.13;3.73;;;21.20;76.60;;;;;;4883326;29;20494;-84
2023/06/13 03:37:36;;;;;;;4.90;4.40;;;21.30;77.60;;;;;;4878512;29;20475;-84
2023/06/13 03:40:07;;;;;;;5.20;4.17;;;21.40;77.20;;;;;;4824114;29;20507;-84
2023/06/13 03:43:03;;;;;;;4.27;3.87;;;21.30;76.50;;;;;;4878896;29;20520;-85
2023/06/13 03:45:37;;;;;;;4.97;4.00;;;21.50;78.60;;;;;;4864182;29;20487;-83
2023/06/13 03:48:08;;;;;;;4.93;4.37;;;21.30;77.50;;;;;;4866515;29;20580;-84
2023/06/13 03:50:50;;;;;;;5.47;4.40;;;21.10;77.20;;;;;;4881992;29;20479;-84
2023/06/13 03:53:29;;;;;;;5.57;4.67;;;20.80;77.30;;;;;;4872220;29;20459;-84
2023/06/13 03:56:16;;;;;;;6.27;4.70;;;21.20;77.70;;;;;;4871903;29;20531;-84
2023/06/13 03:58:44;;;;;;;5.87;5.10;;;21.00;77.00;;;;;;4872292;29;20476;-83
2023/06/13 04:01:29;;;;;;;5.23;4.73;;;21.30;77.90;;;;;;4875434;29;20487;-82
2023/06/13 04:04:07;;;;;;;5.80;4.33;;;21.40;77.70;;;;;;4882161;29;20548;-85
2023/06/13 04:06:38;;;;;;;6.00;4.50;;;21.30;77.10;;;;;;4872816;29;20553;-82
2023/06/13 04:09:06;;;;;;;4.40;4.00;;;21.10;77.60;;;;;;4887849;29;20463;-84
2023/06/13 04:11:44;;;;;;;4.40;4.00;;;20.90;77.40;;;;;;4875265;29;20472;-83
2023/06/13 04:14:14;;;;;;;5.07;3.97;;;21.80;79.40;;;;;;4869981;29;20494;-83
2023/06/13 04:17:03;;;;;;;5.63;4.53;;;20.90;78.20;;;;;;4873205;29;20455;-82
2023/06/13 04:19:48;;;;;;;3.70;3.40;;;21.00;79.80;;;;;;4891730;29;21019;-84
2023/06/13 04:22:26;;;;;;;4.40;4.00;;;21.00;78.50;;;;;;4874140;29;20501;-84
2023/06/13 04:25:10;;;;;;;5.13;4.13;;;21.20;78.60;;;;;;4891892;29;20511;-84
2023/06/13 04:27:50;;;;;;;4.83;3.93;;;20.90;77.80;;;;;;4910095;29;20514;-83
2023/06/13 04:30:25;;;;;;;3.90;3.40;;;20.90;78.10;;;;;;4893881;29;20618;-85
2023/06/13 04:33:02;;;;;;;4.30;3.90;;;20.90;77.90;;;;;;4883272;29;20471;-84
2023/06/13 04:35:37;;;;;;;4.30;3.70;;;20.90;77.70;;;;;;4896643;29;20474;-85
2023/06/13 04:38:13;;;;;;;4.57;4.17;;;20.90;78.90;;;;;;4875983;29;20983;-83
2023/06/13 04:40:45;;;;;;;6.03;4.13;;;20.80;78.30;;;;;;4907735;29;21015;-84
2023/06/13 04:43:26;;;;;;;4.10;3.70;;;20.60;78.70;;;;;;4910960;29;20479;-83
2023/06/13 04:46:04;;;;;;;4.67;3.90;;;20.80;79.00;;;;;;4888682;29;21114;-84
2023/06/13 04:48:36;;;;;;;5.43;4.40;;;20.90;79.20;;;;;;4879173;29;20487;-85
2023/06/13 04:51:21;;;;;;;4.17;3.80;;;21.00;79.00;;;;;;4880453;29;20513;-83
2023/06/13 04:53:57;;;;;;;5.67;4.13;;;21.00;79.10;;;;;;4866875;29;20465;-84
2023/06/13 04:56:31;;;;;;;4.73;4.30;;;20.90;79.80;;;;;;4854228;29;20984;-82
2023/06/13 04:59:15;;;;;;;4.97;4.47;;;21.30;78.70;;;;;;4883040;29;20448;-83
2023/06/13 05:01:56;;;;;;;5.53;4.30;;;21.10;78.30;;;;;;4898277;29;20485;-84
2023/06/13 05:04:23;;;;;;;5.03;4.53;;;21.20;78.00;;;;;;4896376;29;20670;-83
2023/06/13 05:06:57;;;;;;;4.87;4.37;;;21.30;78.00;;;;;;4896490;29;20475;-83
2023/06/13 05:09:30;;;;;;;7.23;4.53;;;21.30;78.00;;;;;;4900864;29;21161;-82
2023/06/13 05:12:00;;;;;;;5.83;4.30;;;21.30;77.50;;;;;;4916680;29;20472;-84
2023/06/13 05:14:39;;;;;;;4.40;4.00;;;21.40;79.50;;;;;;4891818;29;20510;-82
2023/06/13 05:17:14;;;;;;;4.90;3.73;;;21.10;78.10;;;;;;4891856;29;20461;-85
2023/06/13 05:19:44;;;;;;;5.27;4.53;;;21.60;78.90;;;;;;4890015;29;20491;-84
2023/06/13 05:22:19;;;;;;;7.73;4.50;;;21.30;77.80;;;;;;4891258;29;20498;-84
2023/06/13 05:24:59;;;;;;;4.50;4.10;;;21.30;77.40;;;;;;4896431;29;20477;-83
2023/06/13 05:27:31;;;;;;;4.43;3.97;;;21.50;77.30;;;;;;4911199;29;20497;-84
2023/06/13 05:30:00;;;;;;;4.70;4.20;;;21.40;77.40;;;;;;4897057;29;20547;-83
2023/06/13 05:32:37;;;;;;;3.73;3.43;;;21.30;77.30;;;;;;4901416;29;20538;-83
2023/06/13 05:35:19;;;;;;;4.10;3.80;;;21.30;77.40;;;;;;4901453;29;20451;-81
2023/06/13 05:37:46;;;;;;;4.00;3.70;;;21.30;77.70;;;;;;4920105;29;20455;-83
2023/06/13 05:40:21;;;;;;;4.20;3.80;;;21.40;78.10;;;;;;4902202;29;20463;-83
2023/06/13 05:42:51;;;;;;;4.87;3.80;;;21.50;77.50;;;;;;4920471;29;20481;-83
2023/06/13 05:45:18;;;;;;;5.07;4.10;;;21.50;77.00;;;;;;4901816;29;20570;-84
2023/06/13 05:47:50;;;;;;;4.67;4.20;;;21.30;76.50;;;;;;4902816;29;20587;-82
2023/06/13 05:50:17;;;;;;;3.90;3.60;;;21.40;76.30;;;;;;4900437;29;20554;-85
2023/06/13 05:52:54;;;;;;;4.10;3.70;;;21.90;77.20;;;;;;4870444;29;20452;-83
2023/06/13 05:55:21;;;;;;;4.17;3.80;;;21.40;75.90;;;;;;4901096;29;20499;-84
2023/06/13 05:57:49;;;;;;;4.93;4.20;;;21.60;76.40;;;;;;4891057;29;20477;-83
2023/06/13 06:00:22;;;;;;;4.20;3.90;;;21.50;75.10;;;;;;4881312;29;21368;-83
2023/06/13 06:02:52;;;;;;;3.53;3.20;;;21.70;75.80;;;;;;4900358;29;20523;-84
2023/06/13 06:05:19;;;;;;;4.90;3.70;;;21.40;74.80;;;;;;4912058;29;20478;-83
2023/06/13 06:07:51;;;;;;;6.13;4.60;;;21.50;75.30;;;;;;4901911;29;20470;-82
2023/06/13 06:10:21;;;;;;;8.60;4.30;;;21.60;75.60;;;;;;4885825;29;21018;-81
2023/06/13 06:12:51;;;;;;;4.07;3.67;;;21.60;75.60;;;;;;4886864;29;20504;-84
2023/06/13 06:15:21;;;;;;;6.27;3.90;;;21.10;75.40;;;;;;4883374;29;20483;-84
2023/06/13 06:17:50;;;;;;;4.30;3.90;;;21.90;75.20;;;;;;4895656;29;21776;-83
2023/06/13 06:20:27;;;;;;;4.70;3.77;;;21.80;75.20;;;;;;4881165;29;20487;-83
2023/06/13 06:22:57;;;;;;;4.20;3.80;;;21.90;75.20;;;;;;4894403;29;20494;-84
2023/06/13 06:25:39;;;;;;;6.30;4.97;;;21.90;75.40;;;;;;4881179;29;20463;-82
2023/06/13 06:28:21;;;;;;;4.80;4.10;;;22.00;75.70;;;;;;4899499;29;20459;-81
2023/06/13 06:31:00;;;;;;;4.33;3.93;;;22.60;77.20;;;;;;4882712;29;20484;-84
2023/06/13 06:33:28;;;;;;;5.03;4.53;;;22.30;75.20;;;;;;4897352;29;20612;-83
2023/06/13 06:36:02;;;;;;;4.07;3.77;;;22.30;74.70;;;;;;4895032;29;20443;-82
2023/06/13 06:38:31;;;;;;;4.07;3.77;;;22.40;74.70;;;;;;4893092;29;20470;-84
2023/06/13 06:41:01;;;;;;;6.37;4.20;;;22.40;74.80;;;;;;4893508;29;20503;-85
2023/06/13 06:43:40;;;;;;;4.53;4.13;;;22.50;74.30;;;;;;4896139;29;20475;-83
2023/06/13 06:46:13;;;;;;;4.07;3.67;;;23.60;76.40;;;;;;4888098;29;20450;-83
2023/06/13 06:48:43;;;;;;;4.77;3.90;;;22.20;74.10;;;;;;4901767;29;20456;-81
2023/06/13 06:51:16;;;;;;;6.70;4.43;;;22.30;75.20;;;;;;4882899;29;20499;-84
2023/06/13 06:53:56;;;;;;;4.50;4.10;;;22.60;74.30;;;;;;4884902;29;20469;-85
2023/06/13 06:56:29;;;;;;;4.47;3.47;;;22.40;74.10;;;;;;4885627;29;20461;-86
2023/06/13 06:59:11;;;;;;;4.60;4.13;;;;;;;;;;4855551;29;20464;-83
2023/06/13 07:01:55;;;;;;;5.33;3.60;;;22.90;75.00;;;;;;4880173;29;20447;-82
2023/06/13 07:04:30;;;;;;;4.17;3.77;;;22.90;75.90;;;;;;4886404;29;20834;-85
2023/06/13 07:07:08;;;;;;;4.10;3.80;;;23.20;75.60;;;;;;4879088;29;20463;-82
2023/06/13 07:09:36;;;;;;;5.73;3.70;;;23.10;74.50;;;;;;4899351;29;20482;-84
2023/06/13 07:12:09;;;;;;;4.50;4.10;;;23.30;74.70;;;;;;4885117;29;20496;-85
2023/06/13 07:14:40;;;;;;;4.53;4.13;;;23.40;74.60;;;;;;4902309;29;20454;-82
2023/06/13 07:17:09;;;;;;;4.53;4.13;;;23.40;74.10;;;;;;4884208;29;20475;-84
2023/06/13 07:19:40;;;;;;;5.00;4.50;;;23.40;73.80;;;;;;4906290;29;20482;-85
2023/06/13 07:22:29;;;;;;;3.93;3.60;;;23.50;74.00;;;;;;4905509;29;20799;-85
2023/06/13 07:25:04;;;;;;;4.20;3.80;;;23.30;73.60;;;;;;4892122;29;20450;-84
2023/06/13 07:27:35;;;;;;;5.13;3.93;;;23.20;73.60;;;;;;4904457;29;20460;-85
2023/06/13 07:30:12;;;;;;;4.97;3.83;;;23.30;73.80;;;;;;4892682;29;20578;-83
2023/06/13 07:32:43;;;;;;;3.77;3.47;;;23.20;73.50;;;;;;4909631;29;20467;-84
2023/06/13 07:35:16;;;;;;;6.00;4.20;;;23.20;72.60;;;;;;4893496;29;20447;-82
2023/06/13 07:38:05;;;;;;;5.90;4.30;;;23.40;73.00;;;;;;4895385;29;20482;-84
2023/06/13 07:40:36;;;;;;;4.87;4.37;;;23.60;72.00;;;;;;4896037;29;20487;-82
2023/06/13 07:43:26;;;;;;;;;;;;;;;;;;;;;
2023/06/13 07:46:13;;;;;;;4.57;4.17;;;23.60;72.00;;;;;;4909868;29;20465;-85
2023/06/13 07:49:00;;;;;;;3.83;3.53;;;23.90;73.70;;;;;;4902727;29;20458;-84
2023/06/13 07:51:29;;;;;;;4.43;2.80;;;23.90;72.90;;;;;;4904538;29;20479;-84
2023/06/13 07:54:09;;;;;;;3.97;3.57;;;24.20;72.90;;;;;;4900067;29;20455;-84
2023/06/13 07:56:47;;;;;;;4.27;3.87;;;24.10;72.40;;;;;;4899473;29;20456;-83
2023/06/13 07:59:16;;;;;;;4.50;4.03;;;24.30;71.90;;;;;;4904466;29;20484;-83
2023/06/13 08:01:44;;;;;;;3.90;3.60;;;24.30;71.10;;;;;;4904164;29;20502;-82
2023/06/13 08:04:18;;;;;;;3.57;3.20;;;24.00;71.00;;;;;;4902821;29;20494;-83
2023/06/13 08:06:55;;;;;;;3.70;3.30;;;23.90;71.50;;;;;;4895397;29;20518;-85
2023/06/13 08:09:32;;;;;;;3.97;3.57;;;23.90;72.90;;;;;;4893818;29;20518;-83
2023/06/13 08:12:06;;;;;;;3.50;3.20;;;24.40;73.20;;;;;;4897513;29;20446;-83
2023/06/13 08:14:41;;;;;;;4.20;3.80;;;24.30;71.20;;;;;;4893946;29;20452;-83
2023/06/13 08:17:15;;;;;;;3.90;3.60;;;24.00;71.50;;;;;;4899372;29;20460;-83
2023/06/13 08:19:50;;;;;;;4.13;3.33;;;24.40;72.60;;;;;;4905600;29;20475;-86
2023/06/13 08:22:36;;;;;;;4.10;3.70;;;24.60;71.30;;;;;;4885499;29;20474;-85
2023/06/13 08:25:12;;;;;;;5.30;3.90;;;24.80;70.50;;;;;;4897321;29;20472;-85
2023/06/13 08:27:44;;;;;;;3.73;3.43;;;24.90;69.10;;;;;;4900050;29;20466;-84
2023/06/13 08:30:22;;;;;;;4.20;3.63;;;25.20;69.10;;;;;;4895474;29;21037;-84
2023/06/13 08:33:02;;;;;;;4.47;4.07;;;24.90;69.30;;;;;;4886790;29;20542;-83
2023/06/13 08:35:34;;;;;;;3.83;3.30;;;25.40;69.50;;;;;;4887643;29;20542;-84
2023/06/13 08:38:09;;;;;;;5.30;3.83;;;26.00;68.90;;;;;;4861824;29;21215;-82
2023/06/13 08:41:06;;;;;;;;;;;;;;;;;;;;;
2023/06/13 08:43:38;;;;;;;4.37;3.97;;;26.30;68.20;;;;;;4902593;29;20490;-83
2023/06/13 08:46:17;;;;;;;6.60;3.57;;;26.60;65.60;;;;;;4888310;29;20455;-84
2023/06/13 08:48:45;;;;;;;3.77;3.47;;;26.40;67.40;;;;;;4890622;29;20464;-85
2023/06/13 08:51:37;;;;;;;3.80;3.50;;;26.30;66.70;;;;;;4882755;29;20562;-84
2023/06/13 08:54:21;;;;;;;3.83;3.53;;;26.60;65.90;;;;;;4887140;29;20479;-84
2023/06/13 08:56:54;;;;;;;4.20;3.80;;;27.00;67.30;;;;;;4899720;29;21028;-85
2023/06/13 08:59:55;;;;;;;3.57;3.17;;;27.00;66.90;;;;;;4885367;29;20539;-85
2023/06/13 09:02:43;;;;;;;4.73;3.73;;;27.10;66.40;;;;;;4883355;29;21180;-84
2023/06/13 09:05:24;;;;;;;4.03;3.63;;;27.40;66.90;;;;;;4894386;29;20539;-85
2023/06/13 09:08:06;;;;;;;4.13;3.83;;;27.50;67.30;;;;;;4900372;29;20728;-85
2023/06/13 09:11:07;;;;;;;3.20;2.90;;;27.90;64.90;;;;;;4831748;23;2834288;-84
2023/06/13 09:13:37;;;;;;;4.23;3.80;;;27.70;66.20;;;;;;4897276;29;20237;-85
2023/06/13 09:16:15;;;;;;;3.80;3.50;;;27.80;66.10;;;;;;4877959;29;20505;-86
2023/06/13 09:19:06;;;;;;;4.60;4.20;;;28.40;64.80;;;;;;4880129;29;20474;-84
2023/06/13 09:21:52;;;;;;;4.33;3.87;;;29.70;64.20;;;;;;4864938;29;20812;-84
2023/06/13 09:24:25;;;;;;;4.37;3.97;;;29.30;64.00;;;;;;4860734;29;20491;-84
2023/06/13 09:26:57;;;;;;;3.50;3.20;;;29.60;61.60;;;;;;4864641;29;20460;-85
2023/06/13 09:29:42;;;;;;;3.53;3.23;;;29.50;62.10;;;;;;4866188;29;20560;-86
2023/06/13 09:32:32;;;;;;;3.47;3.17;;;29.40;61.60;;;;;;4860836;29;21896;-85
2023/06/13 09:35:08;;;;;;;3.87;3.47;;;29.20;63.10;;;;;;4870666;29;20560;-84
2023/06/13 09:37:50;;;;;;;3.97;3.60;;;29.30;62.00;;;;;;4875237;29;20457;-86
2023/06/13 09:40:22;;;;;;;3.80;3.50;;;;;;;;;;4873169;29;21020;-86
2023/06/13 09:43:02;;;;;;;4.70;3.53;;;30.00;35.10;;;;;;4877779;29;20472;-85
2023/06/13 09:46:00;;;;;;;;;;;;;;;;;;;;;
2023/06/13 09:48:40;;;;;;;2.97;2.77;;;30.80;34.80;;;;;;4873250;29;20567;-85
2023/06/13 09:51:32;;;;;;;;;;;;;;;;;;;;;
2023/06/13 09:54:09;;;;;;;5.50;3.57;;;31.50;33.10;;;;;;4877550;29;20524;-86
2023/06/13 09:57:00;;;;;;;3.80;3.50;;;31.20;33.60;;;;;;4865829;29;20466;-84
2023/06/13 09:59:49;;;;;;;3.30;3.10;;;31.80;32.90;;;;;;4882662;29;20831;-84
2023/06/13 10:02:30;;;;;;;3.40;3.20;;;32.30;32.20;;;;;;4887722;29;20535;-84
2023/06/13 10:05:05;;;;;;;4.13;3.83;;;33.00;31.40;;;;;;4898481;29;20473;-83
2023/06/13 10:07:35;;;;;;;3.67;3.47;;;32.80;31.10;;;;;;4899137;29;20524;-83
2023/06/13 10:10:27;;;;;;;3.60;3.30;;;32.80;30.90;;;;;;4896855;29;20493;-86
2023/06/13 10:13:28;;;;;;;3.20;3.00;;;32.70;30.40;;;;;;4898135;29;20453;-82
2023/06/13 10:16:04;;;;;;;3.90;3.60;;;32.30;30.80;;;;;;4897647;29;20520;-83
2023/06/13 10:19:23;;;;;;;3.30;3.10;;;32.80;31.00;;;;;;4886711;29;20451;-83
2023/06/13 10:21:57;;;;;;;3.30;3.10;;;33.40;30.10;;;;;;4879368;29;20499;-85
2023/06/13 10:25:25;;;;;;;4.10;3.80;;;34.10;28.40;;;;;;4873937;29;20622;-82
2023/06/13 10:28:44;;;;;;;3.77;3.20;;;33.90;28.30;;;;;;4874567;29;20437;-83
2023/06/13 10:31:51;;;;;;;3.80;3.60;;;33.00;28.40;;;;;;4866986;29;20491;-83
2023/06/13 10:35:16;;;;;;;3.97;3.60;;;32.90;28.50;;;;;;4867666;29;20444;-85
2023/06/13 10:38:33;;;;;;;3.77;3.47;;;32.70;28.60;;;;;;4850105;29;20471;-85
2023/06/13 10:41:36;;;;;;;4.40;4.00;;;32.60;28.60;;;;;;4872469;29;20489;-85
2023/06/13 10:44:50;;;;;;;4.73;3.80;;;33.20;28.70;;;;;;4859851;29;20497;-86
2023/06/13 10:47:49;;;;;;;;;;;;;;;;;;;;;
2023/06/13 10:50:43;;;;;;;4.67;3.73;;;32.90;28.90;;;;;;4870305;29;20483;-85
2023/06/13 10:53:31;;;;;;;4.43;4.03;;;32.90;28.90;;;;;;4862932;29;20468;-85
2023/06/13 10:59:52;;;;;;;4.50;4.10;;;32.40;28.90;;;;;;4850807;29;20490;-85
2023/06/13 11:03:49;;;;;;;;;;;;;;;;;;;;;
2023/06/13 11:07:10;;;;;;;;;;;;;;;;;;;;;
2023/06/13 11:10:30;;;;;;;4.50;4.17;;;32.70;29.50;;;;;;4819500;29;20483;-85
2023/06/13 11:13:39;;;;;;;4.03;3.70;;;32.30;29.70;;;;;;4772987;29;20486;-84
2023/06/13 11:16:46;;;;;;;4.60;4.20;;;33.30;29.20;;;;;;4808760;29;20530;-83
2023/06/13 11:25:09;;;;;;;4.00;3.70;;;33.00;29.40;;;;;;1361173;26;20486;-86
2023/06/13 11:27:46;;;;;;;4.13;3.80;;;32.70;29.80;;;;;;4933396;29;20490;-86
2023/06/13 11:30:21;;;;;;;4.00;3.70;;;32.60;29.70;;;;;;4916790;29;20477;-84
2023/06/13 11:32:52;;;;;;;5.13;4.73;;;32.70;29.90;;;;;;4915172;29;20449;-84
2023/06/13 11:35:39;;;;;;;3.60;3.40;;;33.00;29.10;;;;;;4913847;29;20458;-85
2023/06/13 11:38:34;;;;;;;3.73;3.43;;;32.70;29.20;;;;;;4913109;29;20462;-84
2023/06/13 11:41:27;;;;;;;3.40;3.10;;;32.90;29.30;;;;;;4924828;29;20916;-84
2023/06/13 11:43:57;;;;;;;4.87;4.47;;;32.50;29.60;;;;;;4904902;29;20473;-84
2023/06/13 11:46:44;;;;;;;5.53;3.87;;;31.80;31.00;;;;;;4913700;29;21020;-84
2023/06/13 11:49:19;;;;;;;4.70;4.30;;;31.50;31.10;;;;;;4912309;29;21009;-84
2023/06/13 11:52:24;;;;;;;4.33;3.93;;;31.70;30.00;;;;;;4907065;29;20874;-85
2023/06/13 11:54:54;;;;;;;4.37;4.07;;;32.30;29.60;;;;;;4927160;29;20461;-82
2023/06/13 11:57:48;;;;;;;4.00;3.60;;;32.10;30.10;;;;;;4928064;29;20537;-85
2023/06/13 12:00:25;;;;;;;4.20;3.80;;;32.30;29.20;;;;;;4912176;29;20478;-83
2023/06/13 12:02:59;;;;;;;4.07;3.50;;;32.30;28.80;;;;;;4908561;29;20916;-85
2023/06/13 12:05:58;;;;;;;3.43;3.13;;;32.20;29.70;;;;;;4924079;29;20485;-84
2023/06/13 12:08:51;;;;;;;4.37;4.07;;;32.40;28.50;;;;;;4906598;29;21334;-84
2023/06/13 12:11:41;;;;;;;4.07;3.67;;;32.40;29.00;;;;;;4891542;29;20494;-83
2023/06/13 12:14:23;;;;;;;3.57;3.37;;;32.80;28.80;;;;;;4914164;29;20687;-85
2023/06/13 12:16:59;;;;;;;4.43;4.13;;;32.90;28.20;;;;;;4930707;29;20614;-82
2023/06/13 12:19:37;;;;;;;3.63;3.43;;;32.20;28.70;;;;;;4918629;29;20977;-84
2023/06/13 12:22:30;;;;;;;48.80;44.23;;;32.50;28.60;;;;;;4916037;29;20466;-83
2023/06/13 12:25:16;;;;;;;3.97;3.67;;;31.70;29.50;;;;;;4931493;29;20545;-83
2023/06/13 12:28:13;;;;;;;4.07;3.77;;;32.10;29.80;;;;;;4913654;29;20497;-84
2023/06/13 12:31:14;;;;;;;4.60;4.20;;;32.20;29.70;;;;;;4938361;23;20808;-84
2023/06/13 12:34:16;;;;;;;4.20;3.80;;;32.30;29.00;;;;;;4939389;28;20445;-84
2023/06/13 12:36:46;;;;;;;4.57;4.23;;;32.40;29.00;;;;;;4959912;28;20550;-83
2023/06/13 12:39:17;;;;;;;3.93;3.63;;;32.30;29.00;;;;;;4952277;28;21070;-83
2023/06/13 12:41:56;;;;;;;3.80;3.47;;;32.60;29.30;;;;;;4932317;29;20461;-85
2023/06/13 12:47:39;;;;;;;4.10;3.70;;;33.00;28.40;;;;;;4940148;28;20458;-84
2023/06/13 12:50:41;;;;;;;;;;;;;;;;;;;;;
2023/06/13 12:57:56;;;;;;;4.20;3.90;;;31.90;29.80;;;;;;4879666;29;20546;-82
2023/06/13 13:04:10;;;;;;;;;;;;;;;;;;;;;
2023/06/13 13:07:23;;;;;;;3.90;3.60;;;32.10;29.30;;;;;;4917443;29;21179;-83
2023/06/13 13:10:22;;;;;;;4.10;3.80;;;32.10;29.50;;;;;;4917956;29;20564;-84
2023/06/13 13:17:05;;;;;;;4.57;3.83;;;31.30;29.90;;;;;;4923442;29;20445;-82
2023/06/13 13:19:52;;;;;;;4.00;3.70;;;31.70;29.70;;;;;;4927521;29;20476;-83
2023/06/13 13:22:47;;;;;;;4.03;3.73;;;31.50;29.70;;;;;;4930911;29;20462;-83
2023/06/13 13:25:22;;;;;;;4.50;4.13;;;31.80;29.90;;;;;;4914670;29;20496;-86
2023/06/13 13:28:05;;;;;;;4.43;4.13;;;31.50;30.30;;;;;;4886395;29;20507;-86
2023/06/13 13:30:41;;;;;;;4.20;3.90;;;31.20;30.80;;;;;;4876449;29;20516;-84
2023/06/13 13:33:56;;;;;;;3.67;3.47;;;31.50;30.70;;;;;;4900235;29;20471;-83
2023/06/13 13:36:52;;;;;;;4.33;4.03;;;31.30;30.00;;;;;;4903522;29;20472;-83
2023/06/13 13:39:26;;;;;;;4.10;3.53;;;31.40;30.40;;;;;;4891544;29;20456;-82
2023/06/13 13:42:02;;;;;;;3.80;3.50;;;31.60;30.00;;;;;;4901868;29;20463;-82
2023/06/13 13:44:38;;;;;;;4.20;3.90;;;31.50;29.70;;;;;;4890012;29;20495;-84
2023/06/13 13:47:10;;;;;;;4.00;3.70;;;31.20;29.70;;;;;;4908106;29;20482;-85
2023/06/13 13:49:40;;;;;;;4.37;4.07;;;31.00;30.00;;;;;;4930038;29;20486;-85
2023/06/13 13:52:28;;;;;;;4.23;3.93;;;30.80;30.20;;;;;;4911809;29;21004;-85
2023/06/13 13:55:03;;;;;;;5.30;4.67;;;30.50;30.50;;;;;;4913707;29;20466;-86
2023/06/13 13:57:45;;;;;;;4.03;3.73;;;30.70;30.70;;;;;;4912676;29;20461;-82
2023/06/13 14:00:35;;;;;;;4.40;4.00;;;30.80;31.00;;;;;;4926404;29;20497;-87
2023/06/13 14:03:09;;;;;;;4.53;4.13;;;30.60;30.60;;;;;;4927598;29;20474;-84
2023/06/13 14:06:43;;;;;;;;;;;;;;;;;;;;;
2023/06/13 14:09:16;;;;;;;3.90;3.60;;;30.10;31.20;;;;;;4904743;29;20478;-84
2023/06/13 14:12:13;;;;;;;3.63;3.33;;;30.40;31.30;;;;;;4927177;29;20422;-85
2023/06/13 14:14:51;;;;;;;4.27;3.97;;;30.40;31.10;;;;;;4933002;29;20466;-86
2023/06/13 14:17:23;;;;;;;4.63;3.90;;;30.30;30.70;;;;;;4935825;29;20464;-85
2023/06/13 14:19:58;;;;;;;3.83;3.53;;;30.10;31.20;;;;;;4934902;29;20544;-86
2023/06/13 14:22:42;;;;;;;3.97;3.67;;;30.20;31.20;;;;;;4911805;29;20463;-85
2023/06/13 14:25:45;;;;;;;4.20;3.90;;;30.00;31.10;;;;;;4926654;29;20512;-86
2023/06/13 14:28:30;;;;;;;4.87;4.47;;;29.80;31.30;;;;;;4909121;29;20468;-85
2023/06/13 14:30:59;;;;;;;4.00;3.60;;;29.80;30.90;;;;;;4922892;29;20484;-84
2023/06/13 14:33:45;;;;;;;4.27;3.87;;;29.70;31.00;;;;;;4923545;29;20922;-83
2023/06/13 14:36:43;;;;;;;4.20;3.80;;;29.80;31.20;;;;;;4912257;29;20457;-86
2023/06/13 14:39:33;;;;;;;6.37;4.03;;;29.90;31.10;;;;;;4909642;29;20505;-85
2023/06/13 14:42:18;;;;;;;3.70;3.40;;;30.40;30.80;;;;;;4909206;29;20541;-84
2023/06/13 14:44:48;;;;;;;4.33;3.93;;;30.50;30.20;;;;;;4912064;29;20572;-83
2023/06/13 14:47:18;;;;;;;4.03;3.73;;;30.30;30.50;;;;;;4909176;29;20461;-85
2023/06/13 14:49:50;;;;;;;4.03;3.63;;;30.30;30.50;;;;;;4911484;29;20575;-85
2023/06/13 14:52:33;;;;;;;4.40;4.00;;;30.30;30.90;;;;;;4922877;29;20783;-84
2023/06/13 14:55:04;;;;;;;4.10;3.80;;;30.50;31.10;;;;;;4924658;29;20446;-86
2023/06/13 14:57:35;;;;;;;4.23;3.90;;;30.60;31.00;;;;;;4910752;29;20521;-84
2023/06/13 15:00:33;;;;;;;4.90;4.50;;;30.70;31.10;;;;;;4921578;29;20481;-85
2023/06/13 15:03:12;;;;;;;6.93;4.37;;;30.60;31.30;;;;;;4904460;29;21366;-84
2023/06/13 15:05:59;;;;;;;4.17;3.77;;;30.10;31.20;;;;;;4920076;28;20699;-84
2023/06/13 15:08:29;;;;;;;4.30;4.00;;;30.20;31.60;;;;;;4918206;29;20457;-86